Time;durP1;ratioP1;P1;durP2;ratioP2;P2;SDS_P1;SDS_P2;PMS_P1;PMS_P2;Temp;Humidity;BMP_temperature;BMP_pressure;BME280_temperature;BME280_humidity;BME280_pressure;Samples;Min_cycle;Max_cycle;Signal;HPM_P1;HPM_P2
2024/01/12 00:01:07;;;;;;;38.30;21.17;;;;;;;0.32;100.00;103208.81;4855656;29;20061;-65
2024/01/12 00:03:35;;;;;;;40.60;18.70;;;;;;;0.32;100.00;103212.38;4864814;29;20036;-65
2024/01/12 00:06:00;;;;;;;39.63;21.15;;;;;;;0.35;100.00;103211.47;4882579;29;20025;-65
2024/01/12 00:08:26;;;;;;;37.45;21.02;;;;;;;0.38;100.00;103211.53;4875531;29;20162;-65
2024/01/12 00:10:51;;;;;;;36.72;19.42;;;;;;;0.38;100.00;103211.53;4888519;29;20033;-65
2024/01/12 00:13:17;;;;;;;37.75;19.52;;;;;;;0.39;100.00;103218.56;4888572;29;20884;-66
2024/01/12 00:15:42;;;;;;;42.22;19.23;;;;;;;0.39;100.00;103213.28;4881164;29;20114;-66
2024/01/12 00:18:08;;;;;;;37.88;20.05;;;;;;;0.40;100.00;103214.19;4863645;29;20032;-66
2024/01/12 00:20:33;;;;;;;41.08;20.98;;;;;;;0.39;100.00;103213.28;4883001;29;20365;-65
2024/01/12 00:22:59;;;;;;;38.97;20.88;;;;;;;0.39;100.00;103220.34;4866798;29;20056;-67
2024/01/12 00:25:24;;;;;;;38.28;20.83;;;;;;;0.39;100.00;103207.13;4883226;29;20029;-65
2024/01/12 00:27:49;;;;;;;39.72;20.42;;;;;;;0.36;100.00;103202.69;4882569;29;20093;-65
2024/01/12 00:30:15;;;;;;;33.78;17.95;;;;;;;0.36;100.00;103213.25;4879230;29;20061;-67
2024/01/12 00:32:40;;;;;;;36.38;19.48;;;;;;;0.36;100.00;103217.69;4875913;29;20118;-67
2024/01/12 00:35:06;;;;;;;36.53;19.88;;;;;;;0.36;100.00;103217.69;4883829;29;20089;-67
2024/01/12 00:37:31;;;;;;;39.53;20.42;;;;;;;0.34;100.00;103213.25;4884968;29;20040;-67
2024/01/12 00:39:56;;;;;;;38.10;19.05;;;;;;;0.34;100.00;103213.25;4883500;29;20026;-67
2024/01/12 00:42:22;;;;;;;39.42;21.05;;;;;;;0.36;100.00;103217.69;4886622;29;20048;-67
2024/01/12 00:44:47;;;;;;;36.25;21.77;;;;;;;0.36;100.00;103220.31;4880685;29;20041;-68
2024/01/12 00:47:12;;;;;;;36.45;18.77;;;;;;;0.36;100.00;103217.69;4888109;29;20028;-67
2024/01/12 00:49:37;;;;;;;33.72;17.20;;;;;;;0.37;100.00;103216.78;4892092;29;20060;-67
2024/01/12 00:52:03;;;;;;;37.63;20.83;;;;;;;0.37;100.00;103222.06;4893305;29;20037;-67
2024/01/12 00:54:29;;;;;;;35.15;18.42;;;;;;;0.38;100.00;103226.50;4991904;24;20136;-70
2024/01/12 00:56:54;;;;;;;37.15;19.63;;;;;;;0.39;100.00;103222.97;4920239;29;20049;-68
2024/01/12 00:59:19;;;;;;;32.97;19.20;;;;;;;0.43;100.00;103224.78;4914048;29;20021;-68
2024/01/12 01:01:45;;;;;;;40.65;18.20;;;;;;;0.41;100.00;103223.88;4919147;29;20084;-68
2024/01/12 01:04:10;;;;;;;36.88;19.38;;;;;;;0.44;100.00;103222.16;4909213;29;20036;-68
2024/01/12 01:06:36;;;;;;;38.80;18.98;;;;;;;0.46;100.00;103222.16;4925788;29;20035;-68
2024/01/12 01:09:01;;;;;;;40.28;21.58;;;;;;;0.47;100.00;103218.63;4910458;29;20044;-68
2024/01/12 01:11:29;;;;;;;36.95;19.25;;;;;;;0.46;100.00;103220.38;4920212;29;20703;-68
2024/01/12 01:13:54;;;;;;;37.40;19.45;;;;;;;0.44;100.00;103218.59;4914714;29;20080;-68
2024/01/12 01:16:20;;;;;;;37.60;19.58;;;;;;;0.44;100.00;103226.53;4915726;29;20039;-68
2024/01/12 01:18:46;;;;;;;35.75;18.20;;;;;;;0.45;100.00;103212.44;4918309;29;20030;-68
2024/01/12 01:21:11;;;;;;;36.33;19.10;;;;;;;0.47;100.00;103223.91;4916708;29;20033;-68
2024/01/12 01:23:37;;;;;;;40.47;19.95;;;;;;;0.46;100.00;103230.97;4916642;29;20048;-68
2024/01/12 01:26:02;;;;;;;42.08;19.27;;;;;;;0.46;100.00;103232.75;4926554;29;20044;-68
2024/01/12 01:28:27;;;;;;;37.15;19.45;;;;;;;0.44;100.00;103237.13;4911313;29;20136;-68
2024/01/12 01:30:53;;;;;;;36.42;19.63;;;;;;;0.46;100.00;103245.97;4919622;29;20143;-68
2024/01/12 01:33:18;;;;;;;38.33;20.17;;;;;;;0.47;100.00;103242.44;4924411;29;20084;-68
2024/01/12 01:35:43;;;;;;;34.25;20.20;;;;;;;0.47;100.00;103248.63;4910336;29;20031;-68
2024/01/12 01:38:09;;;;;;;37.58;19.95;;;;;;;0.47;100.00;103253.00;4921792;29;20033;-68
2024/01/12 01:40:34;;;;;;;37.88;18.75;;;;;;;0.45;100.00;103258.28;4918094;29;20032;-68
2024/01/12 01:43:09;;;;;;;39.97;21.70;;;;;;;0.47;100.00;103260.94;4921738;29;20433;-68
2024/01/12 01:45:36;;;;;;;39.63;20.77;;;;;;;0.46;100.00;103269.78;4920598;29;20103;-68
2024/01/12 01:48:04;;;;;;;40.53;20.90;;;;;;;0.47;100.00;103274.19;4921298;29;20107;-68
2024/01/12 01:50:29;;;;;;;35.90;19.27;;;;;;;0.45;100.00;103268.00;4923712;29;20108;-68
2024/01/12 01:52:56;;;;;;;35.95;19.95;;;;;;;0.47;100.00;103266.25;4918915;29;20119;-68
2024/01/12 01:55:21;;;;;;;38.20;19.08;;;;;;;0.47;100.00;103259.22;4921714;29;20050;-68
2024/01/12 01:57:47;;;;;;;36.13;19.58;;;;;;;0.46;100.00;103251.25;4919199;29;20041;-68
2024/01/12 02:00:17;;;;;;;36.25;19.23;;;;;;;0.44;100.00;103255.63;4920210;29;20028;-67
2024/01/12 02:02:42;;;;;;;36.85;19.90;;;;;;;0.44;100.00;103258.28;4916587;29;20092;-68
2024/01/12 02:05:08;;;;;;;34.45;19.25;;;;;;;0.45;100.00;103265.34;4900402;29;20056;-68
2024/01/12 02:07:36;;;;;;;35.97;18.88;;;;;;;0.43;100.00;103253.88;4921765;29;20032;-68
2024/01/12 02:10:03;;;;;;;36.08;18.73;;;;;;;0.44;100.00;103251.25;4895780;29;20025;-68
2024/01/12 02:12:28;;;;;;;34.47;16.85;;;;;;;0.44;100.00;103242.41;4918351;29;20020;-68
2024/01/12 02:14:54;;;;;;;32.65;17.10;;;;;;;0.45;100.00;103234.47;4919842;29;20024;-68
2024/01/12 02:17:19;;;;;;;35.78;20.15;;;;;;;0.45;100.00;103234.47;4916832;29;20028;-68
2024/01/12 02:19:44;;;;;;;38.35;19.10;;;;;;;0.46;100.00;103225.69;4894283;29;20025;-68
2024/01/12 02:22:10;;;;;;;32.95;17.05;;;;;;;0.47;100.00;103231.84;4917788;29;20036;-68
2024/01/12 02:24:35;;;;;;;38.95;20.15;;;;;;;0.47;100.00;103232.75;4918516;29;20044;-68
2024/01/12 02:27:00;;;;;;;37.80;19.20;;;;;;;0.47;100.00;103235.41;4907615;29;20485;-68
2024/01/12 02:29:26;;;;;;;38.25;21.98;;;;;;;0.47;100.00;103242.44;4913517;29;20101;-68
2024/01/12 02:31:52;;;;;;;43.58;20.88;;;;;;;0.49;100.00;103240.69;4899131;29;20064;-68
2024/01/12 02:34:17;;;;;;;39.70;19.30;;;;;;;0.46;100.00;103238.91;4893630;29;20025;-69
2024/01/12 02:36:43;;;;;;;35.97;18.80;;;;;;;0.46;100.00;103248.63;4920812;29;20036;-68
2024/01/12 02:39:08;;;;;;;37.63;20.98;;;;;;;0.48;100.00;103242.47;4901803;29;20093;-68
2024/01/12 02:41:33;;;;;;;40.30;20.63;;;;;;;0.48;100.00;103246.84;4904133;29;20547;-68
2024/01/12 02:43:58;;;;;;;39.72;20.48;;;;;;;0.50;100.00;103245.13;4905465;29;20100;-68
2024/01/12 02:46:24;;;;;;;40.25;20.73;;;;;;;0.45;100.00;103244.19;4918034;29;20063;-68
2024/01/12 02:48:50;;;;;;;40.88;19.80;;;;;;;0.46;100.00;103246.84;4917110;29;20059;-68
2024/01/12 02:51:15;;;;;;;37.33;19.45;;;;;;;0.45;100.00;103236.25;4920335;29;20056;-68
2024/01/12 02:53:40;;;;;;;39.75;21.58;;;;;;;0.44;100.00;103231.81;4903761;29;20202;-68
2024/01/12 02:56:05;;;;;;;34.70;20.20;;;;;;;0.48;100.00;103233.63;4904117;29;20092;-68
2024/01/12 02:58:31;;;;;;;39.50;19.92;;;;;;;0.48;100.00;103223.03;4917270;29;20031;-68
2024/01/12 03:00:56;;;;;;;40.33;20.23;;;;;;;0.47;100.00;103216.88;4916428;29;20068;-68
2024/01/12 03:03:21;;;;;;;37.10;18.83;;;;;;;0.46;100.00;103208.94;4900309;29;20413;-68
2024/01/12 03:05:48;;;;;;;36.28;19.75;;;;;;;0.43;100.00;103207.13;4914231;29;20036;-69
2024/01/12 03:08:14;;;;;;;38.53;20.10;;;;;;;0.46;100.00;103209.81;4914351;29;20043;-68
2024/01/12 03:10:40;;;;;;;41.85;21.08;;;;;;;0.45;100.00;103209.78;4916839;29;20028;-68
2024/01/12 03:13:05;;;;;;;41.60;21.75;;;;;;;0.47;100.00;103208.03;4918229;29;20035;-68
2024/01/12 03:15:30;;;;;;;37.45;19.73;;;;;;;0.44;100.00;103210.66;4916348;29;20033;-68
2024/01/12 03:17:56;;;;;;;41.08;22.10;;;;;;;0.46;100.00;103220.38;4905651;29;20024;-68
2024/01/12 03:20:21;;;;;;;39.78;21.58;;;;;;;0.45;100.00;103215.09;4920040;29;20147;-68
2024/01/12 03:22:47;;;;;;;42.03;21.23;;;;;;;0.48;100.00;103215.09;4919747;29;20033;-68
2024/01/12 03:25:13;;;;;;;39.42;21.17;;;;;;;0.47;100.00;103214.22;4914078;29;20074;-68
2024/01/12 03:27:38;;;;;;;43.25;21.85;;;;;;;0.46;100.00;103206.28;4915656;29;20028;-68
2024/01/12 03:30:04;;;;;;;40.72;21.10;;;;;;;0.48;100.00;103207.16;4917133;29;20024;-68
2024/01/12 03:32:30;;;;;;;41.08;20.63;;;;;;;0.49;100.00;103211.59;4917709;29;20376;-68
2024/01/12 03:34:56;;;;;;;45.00;19.58;;;;;;;0.48;100.00;103213.38;4917466;29;20031;-68
2024/01/12 03:37:21;;;;;;;41.00;22.73;;;;;;;0.49;100.00;103214.25;4918702;29;20028;-68
2024/01/12 03:39:47;;;;;;;37.10;21.15;;;;;;;0.48;100.00;103213.38;4917924;29;20029;-68
2024/01/12 03:42:12;;;;;;;39.05;19.70;;;;;;;0.49;100.00;103211.59;4918125;29;20031;-68
2024/01/12 03:44:37;;;;;;;35.78;18.65;;;;;;;0.48;100.00;103209.81;4905907;29;20031;-68
2024/01/12 03:47:03;;;;;;;37.33;19.95;;;;;;;0.46;100.00;103204.50;4908464;29;20024;-68
2024/01/12 03:49:29;;;;;;;36.50;20.42;;;;;;;0.47;100.00;103213.31;4910000;29;20040;-68
2024/01/12 03:51:54;;;;;;;36.00;20.10;;;;;;;0.47;100.00;103205.38;4915443;29;20103;-68
2024/01/12 03:54:23;;;;;;;40.22;18.35;;;;;;;0.46;100.00;103201.88;4915946;29;20048;-68
2024/01/12 03:56:49;;;;;;;41.92;22.60;;;;;;;0.46;100.00;103198.34;4913831;29;20032;-68
2024/01/12 03:59:14;;;;;;;38.63;20.33;;;;;;;0.45;100.00;103209.78;4917768;29;20024;-68
2024/01/12 04:01:43;;;;;;;38.40;20.33;;;;;;;0.46;100.00;103198.34;4921909;29;20100;-68
2024/01/12 04:04:09;;;;;;;35.90;20.42;;;;;;;0.47;100.00;103205.38;4920045;29;20080;-68
2024/01/12 04:06:34;;;;;;;36.65;19.27;;;;;;;0.47;100.00;103193.06;4908272;29;20133;-68
2024/01/12 04:08:59;;;;;;;41.28;18.05;;;;;;;0.47;100.00;103194.81;4918955;29;20093;-68
2024/01/12 04:11:26;;;;;;;35.20;20.25;;;;;;;0.48;100.00;103191.28;4902255;29;20024;-69
2024/01/12 04:13:51;;;;;;;40.70;21.77;;;;;;;0.47;100.00;103197.44;4917733;29;20048;-68
2024/01/12 04:16:17;;;;;;;40.38;20.73;;;;;;;0.46;100.00;103193.94;4921817;29;20032;-68
2024/01/12 04:18:43;;;;;;;42.45;22.15;;;;;;;0.46;100.00;103195.69;4904474;29;20143;-68
2024/01/12 04:21:08;;;;;;;39.67;19.45;;;;;;;0.46;100.00;103196.56;4914616;29;20025;-68
2024/01/12 04:23:33;;;;;;;38.15;20.58;;;;;;;0.48;100.00;103186.91;4918217;29;20092;-68
2024/01/12 04:25:59;;;;;;;37.15;19.88;;;;;;;0.51;100.00;103197.50;4912405;29;20036;-68
2024/01/12 04:28:24;;;;;;;37.65;19.98;;;;;;;0.52;100.00;103190.44;4918519;29;20033;-68
2024/01/12 04:30:49;;;;;;;42.28;21.38;;;;;;;0.52;100.00;103198.38;4915159;29;20020;-68
2024/01/12 04:33:14;;;;;;;40.13;20.67;;;;;;;0.50;100.00;103201.03;4919482;29;20040;-68
2024/01/12 04:35:40;;;;;;;38.63;19.85;;;;;;;0.53;100.00;103205.44;4918042;29;20024;-68
2024/01/12 04:38:05;;;;;;;36.28;19.95;;;;;;;0.51;100.00;103196.59;4904336;29;20461;-68
2024/01/12 04:40:31;;;;;;;39.45;20.35;;;;;;;0.51;100.00;103209.81;4914246;29;20025;-68
2024/01/12 04:42:56;;;;;;;37.70;20.50;;;;;;;0.49;100.00;103203.66;4913524;29;20132;-68
2024/01/12 04:45:21;;;;;;;37.10;18.95;;;;;;;0.47;100.00;103201.00;4917720;29;20100;-68
2024/01/12 04:47:46;;;;;;;40.58;21.17;;;;;;;0.46;100.00;103199.22;4908033;29;20032;-68
2024/01/12 04:50:12;;;;;;;39.97;20.17;;;;;;;0.46;100.00;103199.22;4920441;29;20040;-68
2024/01/12 04:52:40;;;;;;;39.25;19.17;;;;;;;0.46;100.00;103198.34;4914944;29;20028;-68
2024/01/12 04:55:06;;;;;;;37.92;20.58;;;;;;;0.45;100.00;103207.16;4896351;29;20116;-68
2024/01/12 04:57:31;;;;;;;45.88;21.02;;;;;;;0.45;100.00;103207.16;4901361;29;20032;-68
2024/01/12 04:59:56;;;;;;;42.00;18.95;;;;;;;0.46;100.00;103203.63;4899476;29;20021;-68
2024/01/12 05:02:22;;;;;;;41.20;19.52;;;;;;;0.48;100.00;103197.50;4899569;29;20068;-68
2024/01/12 05:04:47;;;;;;;36.40;19.55;;;;;;;0.52;100.00;103199.25;4898724;29;20041;-68
2024/01/12 05:07:12;;;;;;;42.03;22.30;;;;;;;0.52;100.00;103198.38;4896084;29;20029;-68
2024/01/12 05:09:37;;;;;;;39.45;19.20;;;;;;;0.51;100.00;103208.09;4904582;29;20033;-68
2024/01/12 05:12:06;;;;;;;34.22;18.27;;;;;;;0.50;100.00;103194.84;4903365;29;20033;-68
2024/01/12 05:14:32;;;;;;;38.40;19.55;;;;;;;0.50;100.00;103195.72;4901366;29;20085;-68
2024/01/12 05:16:57;;;;;;;37.72;19.55;;;;;;;0.52;100.00;103191.31;4894310;29;20033;-68
2024/01/12 05:19:22;;;;;;;39.15;20.92;;;;;;;0.52;100.00;103182.50;4902380;29;20055;-68
2024/01/12 05:21:47;;;;;;;37.78;19.15;;;;;;;0.54;100.00;103174.56;4905312;29;20032;-68
2024/01/12 05:24:13;;;;;;;34.78;18.20;;;;;;;0.54;100.00;103174.56;4894442;29;20172;-68
2024/01/12 05:26:38;;;;;;;40.33;19.92;;;;;;;0.55;100.00;103179.00;4879308;29;20041;-68
2024/01/12 05:29:04;;;;;;;33.22;18.65;;;;;;;0.53;100.00;103192.22;4903467;29;20037;-68
2024/01/12 05:31:29;;;;;;;37.90;19.67;;;;;;;0.54;100.00;103191.31;4904596;29;20025;-68
2024/01/12 05:33:55;;;;;;;36.05;20.85;;;;;;;0.53;100.00;103184.28;4897248;29;20123;-68
2024/01/12 05:36:21;;;;;;;37.45;19.20;;;;;;;0.59;100.00;103175.50;4902465;29;20032;-68
2024/01/12 05:38:46;;;;;;;37.03;19.25;;;;;;;0.56;100.00;103176.38;4886991;29;20022;-68
2024/01/12 05:41:12;;;;;;;35.67;18.48;;;;;;;0.55;100.00;103185.16;4906035;29;20037;-68
2024/01/12 05:43:40;;;;;;;35.08;17.60;;;;;;;0.57;100.00;103178.13;4905938;29;20030;-68
2024/01/12 05:46:06;;;;;;;40.00;19.45;;;;;;;0.59;100.00;103175.50;4905985;29;20095;-68
2024/01/12 05:48:32;;;;;;;32.67;18.02;;;;;;;0.60;100.00;103188.75;4902936;29;20032;-68
2024/01/12 05:50:57;;;;;;;35.63;18.55;;;;;;;0.63;100.00;103191.41;4895088;29;20030;-68
2024/01/12 05:53:25;;;;;;;35.00;16.77;;;;;;;0.64;100.00;103197.56;4925650;24;20115;-68
2024/01/12 05:55:51;;;;;;;36.40;17.27;;;;;;;0.65;100.00;103189.63;4905666;29;20020;-68
2024/01/12 05:58:17;;;;;;;32.70;17.45;;;;;;;0.64;100.00;103197.56;4910828;29;20088;-68
2024/01/12 06:00:43;;;;;;;33.92;16.60;;;;;;;0.66;100.00;103204.66;4914442;29;20020;-68
2024/01/12 06:03:08;;;;;;;36.08;16.92;;;;;;;0.65;100.00;103200.22;4914551;29;20024;-68
2024/01/12 06:05:33;;;;;;;35.97;16.85;;;;;;;0.67;100.00;103203.78;4913477;29;20334;-68
2024/01/12 06:07:59;;;;;;;37.42;18.33;;;;;;;0.65;100.00;103199.34;4913674;29;20043;-68
2024/01/12 06:10:24;;;;;;;38.03;18.60;;;;;;;0.64;100.00;103205.50;4913840;29;20313;-68
2024/01/12 06:12:49;;;;;;;34.40;17.83;;;;;;;0.64;100.00;103209.03;4899023;29;20532;-68
2024/01/12 06:15:14;;;;;;;33.88;16.10;;;;;;;0.63;100.00;103202.00;4913257;29;20033;-68
2024/01/12 06:17:40;;;;;;;33.60;17.08;;;;;;;0.63;100.00;103202.00;4912528;29;20043;-68
2024/01/12 06:20:07;;;;;;;32.78;16.80;;;;;;;0.65;100.00;103194.94;4915372;29;20100;-68
2024/01/12 06:22:32;;;;;;;31.48;15.80;;;;;;;0.64;100.00;103203.75;4912443;29;20032;-68
2024/01/12 06:24:57;;;;;;;34.85;16.60;;;;;;;0.67;100.00;103200.22;4910046;29;20032;-68
2024/01/12 06:27:22;;;;;;;35.08;16.67;;;;;;;0.67;100.00;103202.88;4899836;29;20123;-68
2024/01/12 06:29:48;;;;;;;31.20;17.13;;;;;;;0.68;100.00;103216.13;4913685;29;20084;-68
2024/01/12 06:32:13;;;;;;;32.38;15.00;;;;;;;0.66;100.00;103212.59;4896358;29;20029;-68
2024/01/12 06:34:39;;;;;;;30.80;15.65;;;;;;;0.67;100.00;103214.38;4912392;29;20046;-68
2024/01/12 06:37:04;;;;;;;32.67;16.63;;;;;;;0.69;100.00;103222.31;4911081;29;20056;-68
2024/01/12 06:39:30;;;;;;;33.83;16.02;;;;;;;0.70;100.00;103221.41;4907870;29;20025;-68
2024/01/12 06:41:56;;;;;;;32.80;15.65;;;;;;;0.67;100.00;103224.97;4912747;29;20239;-68
2024/01/12 06:44:21;;;;;;;32.35;15.90;;;;;;;0.68;100.00;103220.53;4901141;29;20029;-68
2024/01/12 06:46:46;;;;;;;32.28;16.83;;;;;;;0.69;100.00;103217.91;4912664;29;20065;-68
2024/01/12 06:49:12;;;;;;;32.33;15.98;;;;;;;0.72;100.00;103232.00;4913834;29;20025;-68
2024/01/12 06:51:37;;;;;;;29.58;14.82;;;;;;;0.75;100.00;103225.00;4912060;29;20028;-68
2024/01/12 06:54:03;;;;;;;40.20;17.58;;;;;;;0.76;100.00;103221.47;4900232;29;20075;-68
2024/01/12 06:56:28;;;;;;;28.58;13.30;;;;;;;0.77;100.00;103228.53;4911577;29;20041;-68
2024/01/12 06:58:53;;;;;;;32.65;14.65;;;;;;;0.75;100.00;103232.03;4898764;29;20035;-68
2024/01/12 07:01:19;;;;;;;33.67;16.60;;;;;;;0.73;100.00;103229.38;4912868;29;20040;-68
2024/01/12 07:03:45;;;;;;;30.38;15.80;;;;;;;0.75;100.00;103232.03;4896984;29;20048;-68
2024/01/12 07:06:11;;;;;;;27.95;13.70;;;;;;;0.75;100.00;103237.31;4912929;29;20029;-68
2024/01/12 07:08:36;;;;;;;33.55;16.65;;;;;;;0.78;100.00;103232.94;4913219;29;20029;-68
2024/01/12 07:11:06;;;;;;;29.65;13.85;;;;;;;0.80;100.00;103230.31;4912364;29;20110;-68
2024/01/12 07:13:32;;;;;;;35.50;14.15;;;;;;;0.79;100.00;103223.25;4912708;29;20025;-68
2024/01/12 07:15:57;;;;;;;32.67;13.98;;;;;;;0.77;100.00;103231.16;4897994;29;20032;-68
2024/01/12 07:18:22;;;;;;;36.33;15.95;;;;;;;0.79;100.00;103225.88;4912174;29;20064;-68
2024/01/12 07:20:48;;;;;;;28.05;12.95;;;;;;;0.79;100.00;103220.59;4911464;29;20048;-68
2024/01/12 07:23:13;;;;;;;33.80;15.32;;;;;;;0.79;100.00;103212.66;4912495;29;20033;-68
2024/01/12 07:25:38;;;;;;;34.13;14.10;;;;;;;0.79;100.00;103208.25;4899710;29;20031;-68
2024/01/12 07:28:05;;;;;;;30.63;15.75;;;;;;;0.81;100.00;103205.63;4903142;29;20137;-68
2024/01/12 07:30:31;;;;;;;33.38;14.77;;;;;;;0.82;100.00;103202.06;4911335;29;20024;-68
2024/01/12 07:32:56;;;;;;;29.40;13.82;;;;;;;0.85;100.00;103203.00;4910676;29;20043;-68
2024/01/12 07:35:22;;;;;;;31.00;14.38;;;;;;;0.86;100.00;103198.56;4896458;29;20024;-68
2024/01/12 07:37:47;;;;;;;29.20;13.43;;;;;;;0.86;100.00;103201.22;4912400;29;20032;-68
2024/01/12 07:40:12;;;;;;;28.83;12.75;;;;;;;0.86;100.00;103206.50;4912786;29;20059;-68
2024/01/12 07:42:38;;;;;;;30.60;15.07;;;;;;;0.87;100.00;103209.16;4900401;29;20087;-68
2024/01/12 07:45:04;;;;;;;29.50;14.02;;;;;;;0.83;100.00;103203.84;4910926;29;20953;-68
2024/01/12 07:47:29;;;;;;;28.90;13.13;;;;;;;0.87;100.00;103201.22;4913107;29;20029;-68
2024/01/12 07:49:55;;;;;;;31.25;14.80;;;;;;;0.89;100.00;103209.19;4901865;29;20039;-67
2024/01/12 07:52:20;;;;;;;27.02;12.82;;;;;;;0.88;100.00;103204.78;4897707;29;20036;-68
2024/01/12 07:54:45;;;;;;;29.23;12.88;;;;;;;0.88;100.00;103204.78;4915929;29;20028;-68
2024/01/12 07:57:11;;;;;;;27.92;13.20;;;;;;;0.88;100.00;103212.72;4901457;29;20037;-68
2024/01/12 07:59:36;;;;;;;27.02;12.98;;;;;;;0.89;100.00;103203.00;4917972;29;20021;-68
2024/01/12 08:02:01;;;;;;;30.05;13.45;;;;;;;0.90;100.00;103194.19;4916012;29;20032;-68
2024/01/12 08:04:27;;;;;;;29.63;12.55;;;;;;;0.92;100.00;103195.06;4899466;29;20059;-68
2024/01/12 08:06:52;;;;;;;32.85;12.98;;;;;;;0.95;100.00;103198.63;4896065;29;20060;-68
2024/01/12 08:09:18;;;;;;;29.15;14.55;;;;;;;1.03;100.00;103194.25;4912643;29;20020;-68
2024/01/12 08:11:43;;;;;;;35.78;12.60;;;;;;;1.03;100.00;103196.88;4911430;29;20032;-68
2024/01/12 08:14:08;;;;;;;29.05;12.18;;;;;;;1.03;100.00;103207.50;4891910;29;20404;-68
2024/01/12 08:16:34;;;;;;;31.08;12.80;;;;;;;1.06;100.00;103208.41;4911709;29;20068;-68
2024/01/12 08:19:00;;;;;;;28.80;12.02;;;;;;;1.07;100.00;103202.19;4911550;29;20060;-68
2024/01/12 08:21:25;;;;;;;30.95;13.20;;;;;;;1.08;100.00;103207.50;4899413;29;20036;-68
2024/01/12 08:23:50;;;;;;;27.73;12.23;;;;;;;1.06;100.00;103209.28;4908774;29;20036;-68
2024/01/12 08:26:16;;;;;;;32.15;13.40;;;;;;;1.06;100.00;103201.31;4895448;29;20327;-68
2024/01/12 08:28:41;;;;;;;31.17;12.43;;;;;;;1.08;100.00;103202.22;4911730;29;20025;-68
2024/01/12 08:31:06;;;;;;;32.03;12.48;;;;;;;1.10;100.00;103203.13;4915894;29;20040;-68
2024/01/12 08:33:32;;;;;;;27.83;12.38;;;;;;;1.12;100.00;103211.94;4914296;29;21572;-68
2024/01/12 08:35:57;;;;;;;33.15;12.00;;;;;;;1.16;100.00;103212.84;4914124;29;20039;-68
2024/01/12 08:38:22;;;;;;;30.25;12.82;;;;;;;1.17;100.00;103220.81;4906150;29;20033;-68
2024/01/12 08:40:48;;;;;;;30.15;12.90;;;;;;;1.17;100.00;103214.59;4895238;29;20043;-68
2024/01/12 08:43:13;;;;;;;29.33;13.98;;;;;;;1.19;100.00;103218.16;4899462;29;20119;-68
2024/01/12 08:45:39;;;;;;;29.50;12.70;;;;;;;1.19;100.00;103213.75;4887911;29;20033;-68
2024/01/12 08:48:05;;;;;;;30.52;12.77;;;;;;;1.21;100.00;103227.88;4905731;29;20028;-68
2024/01/12 08:50:30;;;;;;;34.58;12.80;;;;;;;1.24;100.00;103227.00;4905825;29;20246;-68
2024/01/12 08:52:56;;;;;;;28.95;11.57;;;;;;;1.27;100.00;103221.72;4884218;24;20147;-68
2024/01/12 08:55:21;;;;;;;30.50;14.55;;;;;;;1.30;100.00;103220.84;4881998;29;20035;-68
2024/01/12 08:57:47;;;;;;;27.30;10.90;;;;;;;1.31;100.00;103212.91;4876690;29;20089;-68
2024/01/12 09:00:13;;;;;;;25.42;12.73;;;;;;;1.32;100.00;103213.81;4876322;29;20039;-68
2024/01/12 09:02:38;;;;;;;31.05;13.45;;;;;;;1.33;100.00;103216.47;4883435;29;20036;-67
2024/01/12 09:05:04;;;;;;;30.10;13.45;;;;;;;1.35;100.00;103217.34;4885287;29;20037;-68
2024/01/12 09:07:29;;;;;;;28.98;12.52;;;;;;;1.40;100.00;103220.00;4890013;29;20528;-67
2024/01/12 09:09:55;;;;;;;29.10;13.18;;;;;;;1.42;100.00;103225.28;4871706;29;20033;-66
2024/01/12 09:12:20;;;;;;;31.90;13.60;;;;;;;1.43;100.00;103221.78;4878421;29;20017;-67
2024/01/12 09:14:45;;;;;;;29.52;12.40;;;;;;;1.45;100.00;103220.00;4888575;29;20517;-65
2024/01/12 09:17:11;;;;;;;33.45;12.70;;;;;;;1.49;100.00;103216.50;4885820;29;20045;-65
2024/01/12 09:19:36;;;;;;;26.00;11.80;;;;;;;1.52;100.00;103225.34;4873552;29;20114;-66
2024/01/12 09:22:03;;;;;;;30.30;12.40;;;;;;;1.52;100.00;103217.41;4889744;29;20124;-66
2024/01/12 09:24:28;;;;;;;31.17;14.48;;;;;;;1.56;100.00;103219.16;4886952;29;20048;-66
2024/01/12 09:26:53;;;;;;;28.08;10.80;;;;;;;1.60;100.00;103221.81;4885857;29;20033;-67
2024/01/12 09:29:19;;;;;;;30.77;13.00;;;;;;;1.62;100.00;103215.63;4887047;29;20033;-67
2024/01/12 09:31:44;;;;;;;31.20;12.90;;;;;;;1.65;100.00;103223.59;4885323;29;20075;-65
2024/01/12 09:34:09;;;;;;;26.90;13.45;;;;;;;1.69;100.00;103216.53;4878164;29;20317;-67
2024/01/12 09:36:35;;;;;;;34.25;13.07;;;;;;;1.71;100.00;103213.03;4891075;29;20035;-67
2024/01/12 09:39:01;;;;;;;34.03;13.80;;;;;;;1.75;100.00;103225.38;4888873;29;20091;-65
2024/01/12 09:41:48;;;;;;;26.15;12.95;;;;;;;1.80;100.00;103230.72;4889582;29;20033;-68
2024/01/12 09:44:20;;;;;;;31.83;13.52;;;;;;;1.80;100.00;103227.16;4890974;29;20045;-66
2024/01/12 09:46:58;;;;;;;45.47;22.10;;;;;;;1.83;100.00;103216.56;4889384;29;20073;-68
2024/01/12 09:49:29;;;;;;;32.85;15.40;;;;;;;1.85;100.00;103213.03;4885608;29;20029;-66
2024/01/12 09:51:59;;;;;;;40.22;20.33;;;;;;;1.86;100.00;103216.56;4887674;29;20048;-67
2024/01/12 09:54:24;;;;;;;33.13;14.55;;;;;;;1.88;100.00;103213.03;4889016;29;20048;-65
2024/01/12 09:56:51;;;;;;;34.80;17.65;;;;;;;1.91;100.00;103215.69;4884224;29;20036;-65
2024/01/12 09:59:18;;;;;;;32.53;13.85;;;;;;;1.96;100.00;103213.03;4878701;29;20034;-69
2024/01/12 10:01:43;;;;;;;31.63;14.02;;;;;;;2.01;100.00;103223.66;4891020;29;20491;-67
2024/01/12 10:04:09;;;;;;;37.05;20.08;;;;;;;2.03;100.00;103212.16;4878025;29;20100;-66
2024/01/12 10:06:37;;;;;;;33.22;17.13;;;;;;;2.10;100.00;103215.72;4889505;29;20320;-65
2024/01/12 10:09:03;;;;;;;39.40;16.67;;;;;;;2.10;100.00;103211.28;4892147;29;20040;-65
2024/01/12 10:11:29;;;;;;;32.40;17.23;;;;;;;2.14;100.00;103209.53;4870595;29;20096;-68
2024/01/12 10:13:54;;;;;;;29.55;12.23;;;;;;;2.16;100.00;103210.41;4872235;29;20044;-68
2024/01/12 10:16:20;;;;;;;27.08;11.85;;;;;;;2.17;100.00;103212.16;4881112;29;20025;-68
2024/01/12 10:18:46;;;;;;;33.90;16.25;;;;;;;2.20;100.00;103216.59;4874920;29;20032;-68
2024/01/12 10:21:13;;;;;;;33.25;13.35;;;;;;;2.21;100.00;103208.63;4884523;29;20357;-68
2024/01/12 10:23:39;;;;;;;27.50;12.52;;;;;;;2.21;100.00;103211.28;4884811;29;20025;-68
2024/01/12 10:26:05;;;;;;;39.13;17.95;;;;;;;2.23;100.00;103214.81;4886416;29;20093;-68
2024/01/12 10:28:30;;;;;;;39.58;15.15;;;;;;;2.26;100.00;103221.91;4869700;29;20028;-68
2024/01/12 10:30:56;;;;;;;30.02;12.70;;;;;;;2.29;100.00;103213.94;4868244;29;20084;-68
2024/01/12 10:33:22;;;;;;;30.08;13.63;;;;;;;2.33;100.00;103210.41;4867466;29;20046;-68
2024/01/12 10:36:03;;;;;;;30.23;13.98;;;;;;;2.36;100.00;103210.41;4881363;29;20044;-68
2024/01/12 10:38:30;;;;;;;32.70;12.93;;;;;;;2.39;100.00;103207.75;4880070;29;20079;-68
2024/01/12 10:41:04;;;;;;;25.60;11.25;;;;;;;2.41;100.00;103203.28;4883294;29;20481;-68
2024/01/12 10:43:35;;;;;;;27.05;12.43;;;;;;;2.41;100.00;103195.34;4893398;29;20045;-68
2024/01/12 10:46:11;;;;;;;29.90;11.27;;;;;;;2.43;100.00;103190.03;4890883;29;20228;-68
2024/01/12 10:48:47;;;;;;;29.65;11.80;;;;;;;2.43;100.00;103195.34;4884845;29;20029;-68
2024/01/12 10:51:16;;;;;;;30.20;11.77;;;;;;;2.42;100.00;103186.50;4873455;29;20100;-68
2024/01/12 10:54:00;;;;;;;28.65;11.00;;;;;;;2.42;100.00;103181.19;4883546;24;20059;-68
2024/01/12 10:56:27;;;;;;;31.05;11.00;;;;;;;2.42;100.00;103183.84;4892046;29;20056;-68
2024/01/12 10:58:53;;;;;;;27.08;11.10;;;;;;;2.43;100.00;103187.38;4871828;29;20089;-68
2024/01/12 11:01:20;;;;;;;34.42;15.10;;;;;;;2.41;100.00;103184.72;4888500;29;20381;-68
2024/01/12 11:03:47;;;;;;;27.08;11.93;;;;;;;2.43;100.00;103188.28;4887023;29;20036;-68